Inicio METAR Ruta Wind Satelite

Informe Meteorológico

Fecha: 2020/07/02 00:08:08 Local
2020.07.02 05:08 UTC


Estado: VENCIDO
Operación:
Station name not available
2020.03.12 1500 UTC
Wind: Variable at 5 MPH (4 KT):0
Sky conditions: partly cloudy
Temperature: 89 F (32 C)
Heat index: 96.8 F (36.0 C):1
Dew Point: 73 F (23 C)
Relative Humidity: 59%
Pressure (altimeter): 29.94 in. Hg (1013 hPa)
ob: SKGO 121500Z VRB04KT 99999 SCT060 32/23 A2994
cycle: 15